Terminal Aerodrome Forecast
Issued by NWS Wakefield, VA

Home | Current Version | Previous Version | Text Only | Print | Product List | Glossary On
Versions: 1 2 3 4 5 6 7 8 9 10 11 12 13 14 15 16 17 18 19 20 21 22
000
FTUS41 KAKQ 231100 CCA
TAFSBY
TAF COR
KSBY 231143Z 2312/2412 00000KT 1SM BR BKN002
      TEMPO 2312/2313 1/2SM FG VV001
     FM231330 21003KT 5SM BR SCT006 BKN250
     FM231400 25006KT P6SM BKN250
     FM231700 22010KT P6SM SCT060 BKN250
      AMD NOT SKED=

USA.gov is the U.S. government's official web portal to all federal, state and local government web resources and services.